Date,TemperatureHighF,TemperatureAvgF,TemperatureLowF,DewpointHighF,DewpointAvgF,DewpointLowF,HumidityHigh,HumidityAvg,HumidityLow,PressureMaxIn,PressureMinIn,WindSpeedMaxMPH,WindSpeedAvgMPH,GustSpeedMaxMPH,PrecipitationSumIn
2013-1-1,80,74,68,64,61,58,72,65,58,30.14,30.01,17,5,17,0.00
2013-1-2,80,72,64,68,63,58,82,75,66,30.02,29.94,11,2,11,0.00
2013-1-3,81,74,68,69,66,62,82,76,65,30.08,29.98,12,3,12,0.00
2013-1-4,80,73,68,70,66,62,83,79,71,30.17,30.05,8,2,8,0.00
2013-1-5,74,70,68,68,65,62,85,83,78,30.17,30.08,8,1,8,0.31
2013-1-6,81,74,67,71,67,62,86,80,71,30.13,30.01,14,4,14,0.00
2013-1-7,76,72,69,68,66,64,84,82,76,30.08,30.01,8,1,8,0.11
2013-1-8,82,76,72,72,69,66,85,79,71,30.12,30.00,13,4,13,0.25
2013-1-9,84,78,75,72,69,67,82,74,67,30.22,30.06,14,7,14,0.00
2013-1-10,84,77,74,69,66,64,77,69,58,30.22,30.13,16,7,16,0.00
2013-1-11,83,77,74,70,67,65,77,72,65,30.19,30.10,13,6,13,0.00
2013-1-12,82,77,74,68,66,64,75,69,61,30.11,30.05,12,4,12,0.00
2013-1-13,83,76,73,68,65,62,75,68,61,30.08,30.01,12,3,12,0.00
2013-1-14,82,76,72,67,64,61,73,67,58,30.12,30.06,13,5,13,0.00
2013-1-15,83,76,73,68,65,62,76,68,60,30.08,30.00,10,5,10,0.00
2013-1-16,82,76,69,69,66,61,81,72,62,30.06,29.97,12,4,12,0.00
2013-1-17,80,72,64,71,65,53,85,78,68,30.03,29.93,15,3,15,0.31
2013-1-18,71,65,56,60,54,46,71,66,60,30.16,30.02,12,4,12,0.00
2013-1-19,73,71,68,67,63,59,85,77,67,30.11,30.00,9,2,9,0.34
2013-1-20,78,72,66,68,65,61,86,79,71,30.04,29.96,9,2,9,0.25
2013-1-21,80,72,68,70,66,62,85,81,70,30.01,29.90,9,2,9,0.39
2013-1-22,76,70,64,63,59,53,83,69,57,30.16,29.94,15,4,15,0.00
2013-1-23,76,69,63,60,56,52,72,62,51,30.22,30.14,10,3,10,0.00
2013-1-24,75,67,61,56,53,48,75,62,48,30.21,30.14,9,2,9,0.00
2013-1-25,75,68,61,62,56,51,72,66,56,30.30,30.06,8,1,8,0.00
2013-1-26,76,69,61,62,58,53,80,69,55,30.18,30.11,8,2,8,0.00
2013-1-27,79,74,68,62,61,57,72,65,55,30.21,30.11,9,3,9,0.00
2013-1-28,82,76,72,67,64,60,75,67,59,30.24,30.15,12,6,12,0.00
2013-1-29,82,76,73,70,66,64,79,73,65,30.15,30.07,14,6,14,0.00
2013-1-30,81,76,72,68,65,62,80,70,63,30.08,29.93,16,7,16,0.00
2013-1-31,73,69,61,68,59,43,85,69,51,30.12,29.90,9,2,9,0.00
2013-2-1,75,65,56,58,50,42,67,59,52,30.19,30.09,14,3,14,0.00
2013-2-2,77,66,58,55,51,42,69,58,44,30.18,30.06,9,1,9,0.00
2013-2-3,76,66,59,56,50,44,74,58,36,30.10,30.01,12,2,12,0.00
2013-2-4,76,64,54,57,50,42,70,59,38,30.06,29.98,12,2,12,0.00
2013-2-5,79,69,58,63,57,51,76,68,55,30.03,29.96,9,2,9,0.00
2013-2-6,81,72,64,66,62,58,82,70,60,30.05,29.97,9,3,9,0.00
2013-2-7,84,76,71,68,64,60,72,67,58,30.03,29.90,10,5,10,0.00
2013-2-8,84,75,70,69,65,62,82,71,57,29.98,29.88,9,2,9,0.00
2013-2-9,81,73,68,66,63,59,83,71,58,30.12,29.96,9,3,9,0.00
2013-2-10,77,72,71,63,60,58,72,66,61,30.19,30.09,14,6,14,0.00
2013-2-11,83,77,73,66,64,63,71,64,58,30.14,30.07,14,7,14,0.00
2013-2-12,85,76,69,70,66,62,79,71,60,30.07,29.95,14,4,14,0.00
2013-2-13,86,77,70,73,68,64,85,76,65,29.97,29.86,15,4,15,0.00
2013-2-14,80,72,66,70,66,60,83,79,70,29.96,29.76,14,3,14,1.37
2013-2-15,74,69,66,66,63,60,85,82,75,29.95,29.88,8,2,8,0.56
2013-2-16,75,67,58,64,57,45,84,70,49,30.03,29.82,14,4,14,0.00
2013-2-17,63,55,49,45,33,25,63,45,25,30.23,30.03,18,4,18,0.00
2013-2-18,72,61,50,57,46,35,69,58,48,30.23,30.14,13,5,13,0.00
2013-2-19,81,73,65,66,61,54,77,66,58,30.14,30.04,15,6,15,0.00
2013-2-20,80,72,66,67,63,60,82,73,60,30.05,29.97,9,2,9,0.03
2013-2-21,85,76,70,69,65,62,78,70,59,30.04,29.93,11,4,11,0.00
2013-2-22,85,78,73,72,68,64,80,72,62,30.05,29.98,14,8,14,0.00
2013-2-23,86,78,73,72,69,66,81,74,64,30.01,29.89,16,6,16,0.33
2013-2-24,86,77,72,74,69,66,83,77,62,29.94,29.87,15,3,15,0.00
2013-2-25,86,77,70,74,69,64,82,76,66,29.88,29.79,14,4,14,0.00
2013-2-26,85,79,75,74,70,68,81,74,67,29.86,29.77,21,6,21,0.00
2013-2-27,79,73,67,70,64,57,81,74,59,29.92,29.83,7,2,7,0.62
2013-2-28,76,67,62,57,54,51,69,62,48,29.94,29.85,8,2,8,0.00
2013-3-1,70,65,62,56,52,48,71,63,55,29.94,29.85,8,2,8,0.00
2013-3-2,69,62,56,50,45,40,69,54,43,29.97,29.90,16,4,16,0.00
2013-3-3,66,60,53,45,43,41,68,54,44,30.08,29.93,13,4,13,0.00
2013-3-4,67,57,46,45,39,35,69,54,32,30.12,30.04,12,3,12,0.00
2013-3-5,76,65,53,59,52,44,73,65,53,30.10,30.03,12,3,12,0.00
2013-3-6,77,66,57,63,52,39,81,62,33,30.04,29.90,13,4,13,0.00
2013-3-7,72,62,51,55,46,37,74,58,41,30.12,30.00,13,2,13,0.00
2013-3-8,75,65,55,55,51,47,76,63,45,30.13,30.06,9,2,9,0.00
2013-3-9,77,67,58,59,54,48,79,62,53,30.14,30.04,13,3,13,0.00
2013-3-10,80,72,67,60,57,53,67,58,48,30.10,30.03,10,4,10,0.00
2013-3-11,84,74,70,64,61,58,69,63,49,30.06,29.93,13,6,13,0.00
2013-3-12,84,76,72,70,65,61,73,68,63,29.96,29.85,16,6,16,0.00
2013-3-13,78,70,63,64,56,48,74,61,43,30.07,29.95,12,3,12,0.00
2013-3-14,73,64,57,52,49,43,70,58,38,30.14,30.02,16,4,16,0.00
2013-3-15,75,65,56,56,51,44,69,61,50,30.17,30.09,10,3,10,0.00
2013-3-16,79,68,59,58,54,51,79,63,47,30.13,30.04,12,3,12,0.00
2013-3-17,81,72,64,62,58,53,72,63,53,30.08,30.00,13,4,13,0.00
2013-3-18,86,75,71,70,65,60,81,70,58,30.03,29.92,17,5,17,0.33
2013-3-19,82,74,70,69,66,64,84,77,62,29.96,29.81,10,2,10,0.00
2013-3-20,84,74,67,70,64,59,82,71,56,29.96,29.76,12,3,12,0.00
2013-3-21,78,69,62,60,55,51,79,62,45,29.91,29.77,10,3,10,0.00
2013-3-22,80,70,59,67,58,50,80,67,53,29.95,29.85,13,4,13,0.00
2013-3-23,87,78,72,75,70,66,84,76,65,29.94,29.80,20,4,20,0.00
2013-3-24,92,82,75,74,71,67,84,70,53,29.86,29.69,21,6,21,0.00
2013-3-25,84,77,68,70,60,41,82,59,34,29.94,29.72,9,3,9,0.00
2013-3-26,75,67,58,45,39,34,45,37,24,30.14,29.94,14,5,14,0.00
2013-3-27,71,60,50,49,43,34,67,53,41,30.17,30.09,11,3,11,0.00
2013-3-28,74,64,54,52,46,36,69,55,32,30.19,30.10,9,3,9,0.00
2013-3-29,79,68,58,55,51,45,68,56,41,30.21,30.13,10,3,10,0.00
2013-3-30,80,72,65,57,54,51,68,54,38,30.20,30.12,9,4,9,0.00
2013-3-31,85,75,68,68,62,55,71,64,54,30.14,29.99,17,7,17,0.00
2013-4-1,91,78,73,71,66,63,80,68,42,30.01,29.92,18,4,18,0.19
2013-4-2,85,76,69,68,65,62,82,69,54,30.03,29.94,8,3,8,0.00
2013-4-3,88,79,73,71,67,64,76,68,57,30.03,29.97,14,6,14,0.00
2013-4-4,88,78,72,73,68,65,81,74,61,30.01,29.88,18,6,18,0.64
2013-4-5,74,71,67,69,64,62,83,81,76,29.95,29.78,14,3,14,0.45
2013-4-6,80,71,62,67,61,56,83,71,59,30.04,29.85,11,4,11,0.03
2013-4-7,83,76,71,66,62,60,70,63,53,30.08,29.98,10,5,10,0.00
2013-4-8,86,76,67,66,62,57,74,61,49,30.09,29.99,9,3,9,0.00
2013-4-9,86,76,74,68,66,63,75,70,52,30.10,30.00,12,6,12,0.08
2013-4-10,88,82,74,73,70,64,74,67,60,30.05,30.00,13,7,13,0.00
2013-4-12,91,83,77,77,73,70,81,73,62,29.91,29.85,18,8,18,0.00
2013-4-13,86,78,73,76,71,67,85,79,68,29.92,29.84,12,2,12,0.56
2013-4-14,90,81,73,76,72,67,85,74,63,29.93,29.88,14,5,14,0.00
2013-4-15,91,81,74,77,72,68,84,75,59,30.01,29.89,14,3,14,0.53
2013-4-16,90,80,73,76,71,67,85,75,62,30.07,29.97,12,3,12,0.03
2013-4-17,88,80,75,71,68,66,76,67,55,30.06,29.99,10,4,10,0.00
2013-4-18,91,82,76,75,70,66,75,67,58,30.01,29.93,13,6,13,0.00
2013-4-19,92,83,78,76,72,68,80,69,57,30.01,29.94,17,8,17,0.03
2013-4-20,93,81,74,77,72,68,83,75,59,30.03,29.93,12,4,12,0.19
2013-4-21,90,80,74,74,67,52,79,66,43,30.05,29.96,12,4,12,0.00
2013-4-22,88,78,73,70,53,17,75,44,11,30.00,29.91,14,3,14,0.25
2013-4-23,87,78,70,68,52,15,62,43,12,30.04,29.91,13,4,13,0.00
2013-4-24,88,80,74,68,64,60,66,59,49,30.09,30.00,10,4,10,0.00
2013-4-25,87,79,73,66,63,61,67,59,48,30.15,30.03,9,4,9,0.00
2013-4-26,87,79,72,68,65,61,69,62,52,30.16,30.06,10,4,10,0.00
2013-4-27,88,80,73,67,65,61,69,61,49,30.15,30.05,12,5,12,0.00
2013-4-28,89,80,74,68,64,62,68,60,46,30.07,29.96,13,6,13,0.00
2013-4-29,90,81,75,72,68,64,71,65,54,30.00,29.91,14,7,14,0.00
2013-4-30,90,80,74,73,68,66,77,68,57,29.96,29.88,13,4,13,0.00
2013-5-1,89,78,73,73,68,65,79,72,57,29.96,29.88,9,2,9,0.17
2013-5-2,81,75,71,65,41,4,72,36,7,29.91,29.78,16,5,16,3.30
2013-5-3,90,77,71,75,52,-34,99,57,1,29.80,29.69,12,3,12,0.98
2013-5-4,89,78,70,72,47,0,68,41,6,29.78,29.67,9,2,9,0.00
2013-5-5,88,77,69,69,62,55,69,60,41,29.90,29.73,10,3,10,0.00
2013-5-6,89,75,63,67,61,54,75,62,47,29.96,29.88,9,2,9,0.00
2013-5-7,87,76,66,68,62,55,70,61,46,30.02,29.92,13,3,13,0.00
2013-5-8,87,76,65,67,62,57,77,63,48,30.09,29.99,8,2,8,0.00
2013-5-9,91,80,69,73,67,59,73,65,55,30.09,30.02,12,3,12,0.00
2013-5-10,93,84,76,75,71,67,75,66,51,30.08,29.99,12,5,12,0.00
2013-5-11,92,82,76,76,70,59,74,67,51,30.03,29.95,17,4,17,0.03
2013-5-12,89,81,74,74,70,66,76,70,61,30.02,29.91,15,3,15,0.53
2013-5-13,90,80,74,73,68,65,77,67,53,30.04,29.94,9,2,9,0.03
2013-5-14,84,80,76,65,62,58,65,56,47,30.13,30.01,12,4,12,0.00
2013-5-15,85,80,74,66,63,58,63,56,50,30.15,30.05,13,5,13,0.00
2013-5-16,86,80,74,66,63,59,64,57,51,30.06,29.96,9,5,9,0.00
2013-5-17,87,81,75,72,68,63,72,66,61,30.05,29.96,12,4,12,0.00
2013-5-18,88,82,77,73,70,67,76,67,60,30.07,30.00,12,4,12,0.00
2013-5-19,89,83,78,72,68,66,69,63,55,30.06,29.98,9,5,9,0.00
2013-5-20,81,78,73,72,69,65,79,75,67,30.03,29.94,10,4,10,2.04
2013-5-21,83,78,72,72,69,65,79,74,66,30.01,29.91,15,4,15,0.03
2013-5-22,85,79,75,73,70,68,77,74,66,29.94,29.88,13,4,13,0.12
2013-5-23,93,83,75,75,72,68,80,69,49,29.97,29.87,34,3,34,0.03
2013-5-24,91,85,78,75,72,70,79,67,55,30.01,29.91,10,3,10,0.00
2013-5-25,88,82,76,71,68,64,77,63,52,30.11,29.99,12,4,12,0.08
2013-5-26,88,82,77,70,66,61,67,58,53,30.13,30.05,10,4,10,0.00
2013-5-27,86,81,76,72,68,63,76,65,60,30.11,30.03,13,6,13,0.31
2013-5-28,83,79,76,72,70,68,78,73,67,30.07,30.00,17,8,17,0.76
2013-5-29,82,77,74,72,69,67,81,76,67,30.05,29.98,20,7,20,3.91
2013-5-30,83,79,74,73,70,66,79,74,68,30.03,29.98,22,10,22,0.64
2013-5-31,85,81,76,74,72,68,80,73,68,30.03,29.98,18,7,18,0.33
2013-6-1,86,79,76,76,72,66,80,77,71,30.00,29.92,14,3,14,0.28
2013-6-2,88,82,74,83,47,-32,99,38,1,29.96,29.91,15,2,15,0.03
2013-6-3,88,82,76,72,57,33,64,46,20,30.00,29.88,12,3,12,0.09
2013-6-4,86,81,76,69,55,30,62,44,17,30.01,29.92,7,1,7,0.06
2013-6-5,84,82,80,71,66,62,64,59,54,29.98,29.88,9,4,9,0.00
2013-6-6,88,81,78,68,53,15,57,40,8,29.88,29.77,22,7,22,0.89
2013-6-7,92,80,76,75,50,27,59,37,16,29.95,29.82,10,2,10,0.42
2013-6-8,86,80,76,54,14,-31,37,15,1,30.06,29.92,9,2,9,0.56
2013-6-9,89,84,80,75,66,48,69,56,32,30.07,30.01,14,6,14,0.00
2013-6-10,90,85,81,77,73,68,71,67,63,30.05,29.99,12,6,12,0.00
2013-6-11,89,85,81,77,73,67,71,67,61,30.05,29.97,13,5,13,0.00
2013-6-12,83,82,80,72,71,69,71,71,68,30.01,29.98,6,2,6,0.64
2013-6-13,91,84,77,76,68,51,70,60,36,30.01,29.91,10,2,10,0.00
2013-6-14,95,84,77,77,72,66,71,66,54,29.93,29.86,14,2,14,0.06
2013-6-15,92,86,79,76,73,69,73,66,60,30.01,29.88,8,3,8,1.06
2013-6-16,93,85,78,77,73,69,74,68,60,30.05,29.97,9,3,9,0.00
2013-6-17,93,87,81,78,74,71,74,66,58,30.04,29.96,12,4,12,0.00
2013-6-18,93,87,81,77,74,72,74,66,58,30.03,29.96,12,5,12,0.00
2013-6-19,92,86,81,78,74,72,76,68,60,30.01,29.95,13,4,13,0.06
2013-6-20,91,85,77,76,72,68,76,67,59,30.06,29.98,16,3,16,0.08
2013-6-21,92,87,82,76,73,71,72,64,57,30.08,29.98,12,5,12,0.00
2013-6-22,91,86,81,75,72,70,72,64,56,30.06,29.99,9,4,9,0.00
2013-6-23,92,86,81,76,73,69,72,66,59,30.08,30.01,13,6,13,0.00
2013-6-24,92,86,82,75,72,70,70,64,58,30.13,30.03,13,6,13,0.00
2013-6-25,91,86,81,77,73,70,72,67,61,30.08,30.01,12,5,12,0.03
2013-6-26,92,86,81,76,73,70,73,66,58,30.05,29.97,12,6,12,0.00
2013-6-27,91,84,81,77,73,71,74,69,61,30.14,29.95,9,2,9,0.31
2013-6-28,91,84,78,77,73,69,77,69,59,30.15,29.85,14,3,14,0.17
2013-6-29,92,83,76,77,73,69,79,72,60,29.90,29.81,15,3,15,0.33
2013-6-30,91,83,78,77,73,70,77,71,61,29.91,29.83,16,4,16,0.00
2013-7-1,90,84,80,78,74,71,76,71,61,30.00,29.88,16,5,16,0.08
2013-7-2,90,84,80,78,74,71,77,72,64,30.07,29.95,13,5,13,0.63
2013-7-3,91,84,79,77,74,71,77,72,63,30.08,30.01,20,6,20,0.17
2013-7-4,91,85,81,77,74,71,74,69,63,30.11,30.03,15,7,15,0.11
2013-7-5,86,83,79,76,73,70,77,73,67,30.11,30.02,20,7,20,0.78
2013-7-6,90,84,81,76,73,71,74,69,62,30.07,30.00,18,7,18,0.14
2013-7-7,91,86,81,76,73,71,74,67,61,30.06,30.00,12,6,12,0.00
2013-7-8,93,86,81,76,73,70,70,64,56,30.11,30.03,9,4,9,0.00
2013-7-9,91,84,79,74,72,70,76,66,57,30.09,30.02,9,3,9,0.06
2013-7-10,82,81,78,70,70,68,74,69,67,30.05,30.01,8,1,8,0.23
2013-7-12,92,86,79,77,73,68,77,66,59,29.94,29.88,12,2,12,0.00
2013-7-13,88,80,76,77,71,68,79,75,65,29.99,29.89,12,2,12,0.92
2013-7-14,90,81,76,76,71,68,79,73,62,30.06,29.93,10,4,10,0.11
2013-7-15,90,82,74,75,68,51,77,63,37,30.06,29.99,12,3,12,1.20
2013-7-16,85,80,75,73,69,66,74,71,63,30.10,30.01,20,6,20,0.31
2013-7-17,83,80,78,72,70,69,76,73,71,30.10,30.01,10,4,10,0.06
2013-7-18,86,79,76,75,69,65,76,72,66,30.08,30.02,16,3,16,0.64
2013-7-19,89,82,76,75,64,44,70,56,29,30.09,30.02,12,4,12,0.00
2013-7-20,90,84,80,78,72,69,74,68,65,30.08,30.00,17,5,17,0.00
2013-7-21,89,83,78,78,72,68,75,71,66,30.11,30.01,11,2,11,0.53
2013-7-22,92,85,78,77,73,69,75,68,62,30.11,30.03,12,4,12,0.00
2013-7-23,93,86,80,78,74,70,76,68,61,30.06,29.95,31,4,31,0.00
2013-7-24,98,88,80,79,74,70,77,64,50,29.99,29.89,13,2,13,0.00
2013-7-25,95,87,79,78,74,70,76,65,56,29.99,29.88,10,2,10,0.00
2013-7-26,96,85,80,78,74,72,77,69,55,29.98,29.91,10,2,10,0.00
2013-7-27,92,83,80,78,73,71,78,72,63,29.96,29.90,13,1,13,0.00
2013-7-28,88,81,77,78,73,69,79,76,70,30.03,29.91,10,1,10,1.67
2013-7-29,92,84,78,78,74,71,79,73,63,30.10,29.98,10,3,10,0.00
2013-7-30,93,87,79,79,76,70,78,70,63,30.12,30.04,12,4,12,0.00
2013-7-31,92,87,82,77,74,71,75,67,59,30.08,29.98,13,5,13,0.00
2013-8-1,93,87,82,77,74,71,71,65,57,30.02,29.92,12,5,12,0.00
2013-8-2,92,84,79,76,72,70,77,69,58,30.01,29.89,8,2,8,0.06
2013-8-3,86,80,77,77,72,68,80,78,70,30.08,29.98,12,2,12,0.73
2013-8-4,93,83,76,79,72,64,80,71,62,30.07,29.96,14,2,14,0.37
2013-8-5,92,83,78,79,73,70,77,72,63,30.00,29.92,10,2,10,0.03
2013-8-6,93,85,78,78,74,70,78,71,62,29.95,29.88,9,2,9,0.00
2013-8-7,92,86,81,79,75,72,77,70,63,29.96,29.87,16,4,16,0.00
2013-8-8,93,87,83,78,75,72,74,67,60,29.99,29.90,12,6,12,0.00
2013-8-9,91,85,82,77,73,71,73,68,61,30.03,29.92,14,6,14,0.08
2013-8-10,92,87,82,78,75,72,75,69,61,30.08,29.99,10,6,10,0.00
2013-8-11,93,87,82,78,75,73,74,67,60,30.10,30.03,10,4,10,0.00
2013-8-12,94,87,82,77,74,71,72,66,58,30.07,29.99,8,3,8,0.00
2013-8-13,94,88,82,78,75,72,75,66,57,30.02,29.93,12,4,12,0.00
2013-8-14,93,87,81,77,74,72,76,66,58,29.99,29.91,13,4,13,0.00
2013-8-15,89,84,78,77,74,70,79,72,64,30.02,29.93,16,4,16,1.85
2013-8-16,93,86,80,79,76,72,80,72,63,30.02,29.95,12,3,12,0.00
2013-8-17,92,87,83,79,76,74,76,70,63,30.04,29.97,12,5,12,0.00
2013-8-18,92,87,83,78,75,73,73,69,61,30.05,29.97,13,6,13,0.00
2013-8-19,93,88,83,78,76,74,75,67,60,30.04,29.95,14,5,14,0.00
2013-8-20,93,87,82,78,75,71,74,67,60,30.03,29.95,13,5,13,0.00
2013-8-21,90,85,82,78,75,73,77,72,66,30.05,29.97,16,5,16,0.03
2013-8-22,92,87,81,79,76,72,78,70,63,30.03,29.94,15,5,15,0.25
2013-8-23,92,86,81,78,75,73,79,71,63,30.00,29.91,9,4,9,0.00
2013-8-24,86,83,81,76,73,71,77,73,66,30.08,29.94,8,3,8,0.00
2013-8-25,90,84,80,76,73,71,76,70,62,30.11,30.00,8,2,8,0.00
2013-8-26,92,84,78,77,73,70,78,70,60,30.08,29.99,13,3,13,0.22
2013-8-27,86,81,76,75,71,70,81,74,62,30.01,29.94,7,1,7,0.06
2013-8-28,90,84,78,75,73,70,78,70,62,30.00,29.92,14,3,14,0.03
2013-8-29,92,84,76,78,74,69,79,71,62,30.00,29.91,9,3,9,0.00
2013-8-30,93,86,79,77,74,71,79,68,56,29.98,29.88,12,3,12,0.00
2013-8-31,91,84,78,78,73,69,78,71,63,29.95,29.88,12,2,12,0.00
2013-9-1,89,82,77,77,73,69,82,74,66,29.97,29.89,8,2,8,0.00
2013-9-2,92,82,77,78,73,70,82,75,62,30.00,29.91,14,2,14,0.93
2013-9-3,91,83,75,78,73,69,83,74,62,29.99,29.90,10,2,10,0.00
2013-9-4,89,85,82,78,75,73,77,73,68,30.03,29.91,9,2,9,0.00
2013-9-5,92,86,81,79,76,73,79,71,62,30.04,29.96,9,3,9,0.08
2013-9-6,93,87,82,79,76,74,80,71,60,30.00,29.92,9,3,9,0.11
2013-9-7,89,81,77,77,73,70,80,76,67,29.95,29.87,10,1,10,0.33
2013-9-8,90,82,76,78,73,70,83,74,65,29.92,29.84,8,1,8,0.03
2013-9-9,90,83,76,77,73,69,83,72,62,29.97,29.87,8,3,8,1.06
2013-9-10,89,84,80,77,74,71,76,71,66,30.01,29.92,10,4,10,0.00
2013-9-11,86,82,77,77,73,69,81,75,71,30.03,29.94,15,3,15,0.92
2013-9-12,86,82,78,76,74,71,82,77,72,29.99,29.87,8,2,8,1.23
2013-9-13,90,83,76,78,74,70,85,75,66,29.89,29.80,8,2,8,0.19
2013-9-14,92,85,78,78,74,71,81,70,61,29.94,29.80,10,3,10,0.00
2013-9-15,88,83,78,78,74,71,82,74,69,30.02,29.89,14,4,14,0.31
2013-9-16,87,82,80,77,74,73,80,77,71,30.01,29.93,12,4,12,0.00
2013-9-17,82,80,77,75,73,71,84,80,75,30.01,29.89,8,4,8,2.12
2013-9-18,87,80,77,78,73,71,84,79,71,29.99,29.89,7,2,7,0.70
2013-9-19,89,82,76,78,73,70,83,74,66,29.98,29.89,9,3,9,0.00
2013-9-20,89,84,79,73,70,67,70,65,57,29.97,29.88,10,3,10,0.00
2013-9-21,89,84,78,75,71,68,73,67,61,29.89,29.78,10,3,10,0.00
2013-9-22,88,84,79,77,74,71,79,74,68,29.84,29.75,12,3,12,0.06
2013-9-23,89,82,79,79,75,72,83,78,72,29.95,29.83,8,1,8,0.14
2013-9-24,91,82,77,80,74,70,85,79,67,29.95,29.85,15,2,15,1.59
2013-9-25,89,82,75,79,73,69,83,76,63,29.88,29.79,10,2,10,0.06
2013-9-26,91,82,78,79,74,71,83,78,65,29.85,29.77,12,2,12,0.22
2013-9-27,88,82,76,76,73,70,83,74,62,29.89,29.79,9,2,9,0.08
2013-9-28,88,82,76,76,72,69,82,73,63,29.93,29.84,10,3,10,0.03
2013-9-29,89,84,78,73,70,68,72,64,59,29.94,29.87,7,2,7,0.00
2013-9-30,89,83,77,73,70,67,75,65,59,29.97,29.87,8,3,8,0.00
2013-10-1,89,85,81,76,72,70,70,66,60,30.00,29.91,9,4,9,0.00
2013-10-2,89,84,80,74,72,70,72,67,61,30.01,29.93,9,4,9,0.00
2013-10-3,89,84,81,74,72,70,74,67,60,30.03,29.91,10,3,10,0.00
2013-10-4,90,84,80,74,72,69,72,66,59,30.03,29.95,8,3,8,0.00
2013-10-5,90,85,75,74,72,67,77,66,60,29.99,29.92,8,3,8,0.08
2013-10-6,88,83,79,76,72,70,76,69,61,29.94,29.85,8,3,8,0.06
2013-10-7,92,82,77,76,72,69,80,72,57,29.88,29.81,14,2,14,0.19
2013-10-8,92,82,77,76,73,69,84,74,60,29.91,29.82,9,2,9,0.00
2013-10-9,85,79,75,74,71,68,80,75,70,29.95,29.87,8,2,8,0.00
2013-10-10,87,81,74,75,71,68,80,71,60,29.98,29.91,10,3,10,0.00
2013-10-11,86,80,73,72,68,66,77,68,57,29.99,29.91,8,2,8,0.00
2013-10-14,87,82,73,71,69,65,76,63,55,29.98,29.89,9,2,9,0.00
2013-10-15,86,80,74,73,69,66,78,69,63,29.93,29.86,8,2,8,0.00
2013-10-16,86,80,74,71,69,66,77,68,61,29.92,29.86,7,2,7,0.00
2013-10-17,89,82,74,73,70,67,80,68,57,29.94,29.85,8,2,8,0.00
2013-10-18,90,82,76,74,71,68,80,69,58,29.96,29.87,9,3,9,0.00
2013-10-19,90,84,79,75,72,70,76,68,58,29.94,29.86,12,5,74,0.00
2013-10-20,90,83,78,77,74,71,83,74,64,29.94,29.85,10,2,10,0.00
2013-10-21,91,84,78,77,74,72,82,73,62,29.98,29.89,12,4,12,0.00
2013-10-22,92,84,78,78,74,71,79,72,60,29.93,29.81,14,4,14,0.00
2013-10-23,91,82,77,74,72,67,83,71,59,29.92,29.80,12,2,12,0.00
2013-10-24,83,78,75,68,65,63,72,64,57,30.04,29.90,12,3,12,0.00
2013-10-25,85,79,72,66,64,61,71,61,52,30.11,30.02,14,4,14,0.00
2013-10-26,86,79,73,66,63,61,67,60,51,30.10,30.03,9,3,9,0.00
2013-10-27,86,76,69,67,63,59,72,64,51,30.05,29.99,7,2,7,0.00
2013-10-28,86,80,75,68,65,62,68,61,49,30.10,30.01,7,3,7,0.00
2013-10-29,87,81,76,71,67,64,70,63,55,30.13,30.04,10,4,10,0.00
2013-10-30,87,81,77,70,67,65,70,64,54,30.14,30.06,12,5,12,0.00
2013-10-31,89,82,78,74,70,66,75,68,59,30.08,29.97,12,6,12,0.00
2013-11-1,88,82,78,76,72,69,75,71,63,29.97,29.88,13,5,13,0.00
2013-11-2,90,81,74,72,70,63,82,70,53,29.91,29.80,7,1,7,0.00
2013-11-3,83,77,72,66,63,61,71,63,55,29.99,29.86,14,4,14,0.00
2013-11-4,82,78,75,68,64,58,71,62,51,30.05,29.97,17,6,17,0.03
2013-11-5,86,80,77,71,68,65,72,67,59,30.06,29.99,17,8,17,0.00
2013-11-6,86,80,76,70,68,66,73,67,57,30.03,29.97,13,4,13,0.00
2013-11-7,87,78,72,72,69,66,82,72,60,29.98,29.91,8,2,8,0.00
2013-11-8,86,78,73,72,69,65,85,73,59,30.00,29.90,17,4,17,0.50
2013-11-9,80,77,74,71,69,68,84,76,70,30.07,29.97,14,7,14,0.19
2013-11-10,86,80,77,73,69,66,76,70,63,30.08,30.02,8,4,8,0.00
2013-11-11,86,80,77,71,68,65,73,66,61,30.09,30.01,10,4,10,0.00
2013-11-12,86,80,75,70,67,66,74,66,55,30.04,29.95,8,2,8,0.00
2013-11-13,79,74,70,66,62,55,79,68,59,30.16,29.96,17,6,18,0.08
2013-11-14,80,74,70,63,59,55,65,59,53,30.19,30.09,14,7,14,0.00
2013-11-15,84,78,74,69,66,61,71,67,61,30.10,30.01,12,6,12,0.00
2013-11-16,82,79,78,72,69,66,79,72,65,30.06,29.98,13,5,13,0.14
2013-11-17,87,80,77,73,70,67,78,70,63,30.03,29.98,12,6,12,0.00
2013-11-18,87,80,74,74,70,68,82,72,64,29.99,29.89,8,2,8,0.00
2013-11-19,85,77,73,73,70,68,85,79,66,29.91,29.84,6,1,6,2.43
2013-11-20,85,77,71,74,70,65,86,78,69,30.02,29.88,9,2,9,0.00
2013-11-21,84,78,74,73,70,68,81,76,66,30.11,30.00,13,4,13,0.98
2013-11-22,84,79,77,71,69,67,77,71,64,30.11,30.03,13,5,13,0.00
2013-11-23,85,79,75,74,69,67,77,72,63,30.03,29.95,10,3,10,0.00
2013-11-24,83,75,70,69,66,62,85,74,61,30.10,29.95,16,4,16,0.48
2013-11-25,78,74,72,67,64,60,76,69,64,30.15,30.01,15,8,15,0.00
2013-11-26,84,78,73,74,71,65,83,77,72,30.01,29.81,18,6,18,0.06
2013-11-27,78,73,62,72,65,51,86,75,58,30.07,29.76,15,3,15,0.81
2013-11-28,74,65,54,60,54,46,74,66,55,30.20,30.06,9,2,10,0.00
2013-11-29,79,73,64,62,60,55,74,63,55,30.20,30.13,14,4,14,0.00
2013-11-30,79,73,66,69,62,58,81,69,61,30.15,30.05,14,4,14,0.03
2013-12-1,82,74,68,69,65,60,85,76,64,30.06,29.91,9,2,9,1.85
2013-12-2,73,70,65,66,64,59,86,81,77,29.91,29.80,7,1,7,0.06
2013-12-3,79,71,64,65,62,58,84,74,59,29.96,29.86,7,1,7,0.00
2013-12-4,79,72,68,66,65,62,83,78,65,30.05,29.95,9,1,9,0.00
2013-12-5,84,77,71,71,68,64,80,72,64,30.11,30.03,14,4,14,0.00
2013-12-6,85,79,76,71,68,65,77,70,62,30.14,30.04,14,6,14,0.00
2013-12-7,84,76,71,72,68,65,84,76,65,30.16,30.10,8,2,8,0.11
2013-12-8,85,79,75,71,68,65,78,70,62,30.15,30.08,15,6,15,0.00
2013-12-9,84,79,76,70,68,66,75,69,60,30.14,30.07,13,6,13,0.00
2013-12-10,80,78,75,71,69,67,80,74,71,30.12,30.05,10,4,10,0.00
2013-12-11,84,77,72,72,69,66,86,77,65,30.14,30.06,6,1,6,0.00
2013-12-12,82,74,71,77,65,59,85,73,63,30.16,30.08,15,4,15,0.00
2013-12-13,80,74,71,66,62,57,75,66,60,30.14,30.06,14,6,14,0.00
2013-12-14,84,78,74,72,69,66,78,74,66,30.07,29.96,17,7,18,0.00
2013-12-15,84,77,73,74,70,66,85,78,69,30.01,29.89,12,2,12,0.00
2013-12-16,77,71,65,66,61,57,78,71,62,30.10,29.98,9,2,10,0.00
2013-12-17,77,69,62,66,58,56,80,70,58,30.12,30.05,9,2,9,0.00
2013-12-18,75,68,63,60,57,56,82,69,56,30.17,30.08,5,1,9,0.00
2013-12-19,78,72,63,66,60,55,82,65,55,30.17,30.10,10,4,11,0.00
2013-12-20,83,77,73,70,66,61,74,69,64,30.13,30.06,10,6,11,0.00
2013-12-21,85,79,76,73,70,67,78,74,66,30.10,30.03,14,8,14,0.00
2013-12-22,85,80,77,73,70,69,79,74,66,30.11,30.03,15,7,15,0.00
2013-12-23,85,79,74,74,70,67,81,75,68,30.13,30.06,14,6,14,0.00
2013-12-24,84,74,70,71,66,62,85,76,65,30.11,30.05,15,3,15,0.00
2013-12-25,80,75,72,67,64,62,74,70,64,30.11,30.05,14,5,14,0.00
2013-12-26,80,76,74,69,67,65,77,74,69,30.11,30.02,8,4,8,0.00
2013-12-27,83,77,75,70,68,66,79,73,67,30.14,30.04,15,4,15,0.00
2013-12-28,82,77,74,71,69,66,82,75,69,30.11,29.98,15,7,15,0.03
2013-12-29,83,78,75,74,71,70,84,79,73,29.99,29.89,15,5,15,0.00
2013-12-30,79,75,72,71,68,64,85,80,73,30.08,29.94,7,1,7,0.00
2013-12-31,80,74,70,67,64,62,79,70,60,30.17,30.04,13,3,13,0.00
2014-1-1,83,78,74,73,69,64,80,75,69,30.14,30.01,14,5,14,0.00
2014-1-2,86,79,74,72,68,66,81,72,55,30.01,29.85,13,3,13,0.00